sensor_id;sensor_type;location;lat;lon;timestamp;P1;durP1;ratioP1;P2;durP2;ratioP2
7432;SDS011;32233;49.500;7.764;2023-07-16T00:01:45;4.97;;;3.87;;
7432;SDS011;32233;49.500;7.764;2023-07-16T00:04:12;6.63;;;4.23;;
7432;SDS011;32233;49.500;7.764;2023-07-16T00:06:38;5.87;;;4.10;;
7432;SDS011;32233;49.500;7.764;2023-07-16T00:09:05;5.73;;;4.60;;
7432;SDS011;32233;49.500;7.764;2023-07-16T00:11:32;4.87;;;3.60;;
7432;SDS011;32233;49.500;7.764;2023-07-16T00:13:58;8.07;;;4.83;;
7432;SDS011;32233;49.500;7.764;2023-07-16T00:16:25;5.90;;;4.10;;
7432;SDS011;32233;49.500;7.764;2023-07-16T00:18:52;9.67;;;4.17;;
7432;SDS011;32233;49.500;7.764;2023-07-16T00:21:18;6.47;;;4.30;;
7432;SDS011;32233;49.500;7.764;2023-07-16T00:23:45;7.07;;;3.90;;
7432;SDS011;32233;49.500;7.764;2023-07-16T00:26:12;7.50;;;4.57;;
7432;SDS011;32233;49.500;7.764;2023-07-16T00:28:39;8.00;;;3.90;;
7432;SDS011;32233;49.500;7.764;2023-07-16T00:31:06;6.23;;;3.80;;
7432;SDS011;32233;49.500;7.764;2023-07-16T00:33:32;5.97;;;4.37;;
7432;SDS011;32233;49.500;7.764;2023-07-16T00:36:00;7.93;;;4.67;;
7432;SDS011;32233;49.500;7.764;2023-07-16T00:38:28;8.10;;;5.10;;
7432;SDS011;32233;49.500;7.764;2023-07-16T00:40:54;8.17;;;4.70;;
7432;SDS011;32233;49.500;7.764;2023-07-16T00:43:21;9.10;;;5.27;;
7432;SDS011;32233;49.500;7.764;2023-07-16T00:45:47;7.57;;;4.83;;
7432;SDS011;32233;49.500;7.764;2023-07-16T00:48:15;6.70;;;4.43;;
7432;SDS011;32233;49.500;7.764;2023-07-16T00:50:42;5.73;;;4.33;;
7432;SDS011;32233;49.500;7.764;2023-07-16T00:53:09;6.83;;;4.10;;
7432;SDS011;32233;49.500;7.764;2023-07-16T00:55:36;6.23;;;3.97;;
7432;SDS011;32233;49.500;7.764;2023-07-16T00:58:04;6.97;;;4.70;;
7432;SDS011;32233;49.500;7.764;2023-07-16T01:00:35;4.77;;;4.20;;
7432;SDS011;32233;49.500;7.764;2023-07-16T01:03:04;4.90;;;4.23;;
7432;SDS011;32233;49.500;7.764;2023-07-16T01:06:15;7.67;;;3.73;;
7432;SDS011;32233;49.500;7.764;2023-07-16T01:08:30;7.17;;;4.50;;
7432;SDS011;32233;49.500;7.764;2023-07-16T01:11:17;10.13;;;4.60;;
7432;SDS011;32233;49.500;7.764;2023-07-16T01:13:44;5.73;;;3.77;;
7432;SDS011;32233;49.500;7.764;2023-07-16T01:16:17;7.73;;;4.00;;
7432;SDS011;32233;49.500;7.764;2023-07-16T01:18:45;9.70;;;4.63;;
7432;SDS011;32233;49.500;7.764;2023-07-16T01:21:12;5.43;;;3.20;;
7432;SDS011;32233;49.500;7.764;2023-07-16T01:26:08;8.20;;;3.30;;
7432;SDS011;32233;49.500;7.764;2023-07-16T01:32:04;6.30;;;3.80;;
7432;SDS011;32233;49.500;7.764;2023-07-16T01:34:34;9.13;;;4.30;;
7432;SDS011;32233;49.500;7.764;2023-07-16T01:37:03;5.27;;;3.70;;
7432;SDS011;32233;49.500;7.764;2023-07-16T01:39:31;10.00;;;3.90;;
7432;SDS011;32233;49.500;7.764;2023-07-16T01:42:01;6.07;;;4.07;;
7432;SDS011;32233;49.500;7.764;2023-07-16T01:44:28;5.97;;;3.90;;
7432;SDS011;32233;49.500;7.764;2023-07-16T01:47:11;5.10;;;4.10;;
7432;SDS011;32233;49.500;7.764;2023-07-16T01:49:41;11.70;;;4.30;;
7432;SDS011;32233;49.500;7.764;2023-07-16T01:52:08;12.03;;;4.77;;
7432;SDS011;32233;49.500;7.764;2023-07-16T01:54:35;7.10;;;3.93;;
7432;SDS011;32233;49.500;7.764;2023-07-16T01:57:03;7.57;;;4.17;;
7432;SDS011;32233;49.500;7.764;2023-07-16T01:59:30;5.67;;;3.67;;
7432;SDS011;32233;49.500;7.764;2023-07-16T02:01:56;8.43;;;4.10;;
7432;SDS011;32233;49.500;7.764;2023-07-16T02:04:23;9.87;;;4.07;;
7432;SDS011;32233;49.500;7.764;2023-07-16T02:06:49;11.90;;;4.53;;
7432;SDS011;32233;49.500;7.764;2023-07-16T02:09:19;7.90;;;4.20;;
7432;SDS011;32233;49.500;7.764;2023-07-16T02:11:46;4.77;;;3.87;;
7432;SDS011;32233;49.500;7.764;2023-07-16T02:14:13;7.70;;;4.63;;
7432;SDS011;32233;49.500;7.764;2023-07-16T02:16:40;7.87;;;4.63;;
7432;SDS011;32233;49.500;7.764;2023-07-16T02:19:07;9.83;;;4.70;;
7432;SDS011;32233;49.500;7.764;2023-07-16T02:21:34;8.73;;;4.10;;
7432;SDS011;32233;49.500;7.764;2023-07-16T02:24:01;10.20;;;4.77;;
7432;SDS011;32233;49.500;7.764;2023-07-16T02:26:27;6.53;;;4.53;;
7432;SDS011;32233;49.500;7.764;2023-07-16T02:28:54;6.07;;;5.00;;
7432;SDS011;32233;49.500;7.764;2023-07-16T02:31:20;6.47;;;5.10;;
7432;SDS011;32233;49.500;7.764;2023-07-16T02:33:47;14.33;;;5.30;;
7432;SDS011;32233;49.500;7.764;2023-07-16T02:36:14;9.53;;;4.80;;
7432;SDS011;32233;49.500;7.764;2023-07-16T02:38:41;9.27;;;5.47;;
7432;SDS011;32233;49.500;7.764;2023-07-16T02:41:07;10.50;;;5.73;;
7432;SDS011;32233;49.500;7.764;2023-07-16T02:43:35;11.20;;;5.50;;
7432;SDS011;32233;49.500;7.764;2023-07-16T02:46:01;7.77;;;5.17;;
7432;SDS011;32233;49.500;7.764;2023-07-16T02:48:28;8.10;;;4.97;;
7432;SDS011;32233;49.500;7.764;2023-07-16T02:50:54;8.00;;;4.93;;
7432;SDS011;32233;49.500;7.764;2023-07-16T02:53:21;9.80;;;4.77;;
7432;SDS011;32233;49.500;7.764;2023-07-16T02:55:47;11.40;;;4.80;;
7432;SDS011;32233;49.500;7.764;2023-07-16T02:58:14;10.03;;;5.40;;
7432;SDS011;32233;49.500;7.764;2023-07-16T03:00:42;7.87;;;4.70;;
7432;SDS011;32233;49.500;7.764;2023-07-16T03:03:08;7.00;;;4.73;;
7432;SDS011;32233;49.500;7.764;2023-07-16T03:05:35;13.00;;;5.40;;
7432;SDS011;32233;49.500;7.764;2023-07-16T03:08:02;11.47;;;5.83;;
7432;SDS011;32233;49.500;7.764;2023-07-16T03:10:29;11.30;;;4.83;;
7432;SDS011;32233;49.500;7.764;2023-07-16T03:12:56;12.00;;;5.17;;
7432;SDS011;32233;49.500;7.764;2023-07-16T03:15:22;9.80;;;5.00;;
7432;SDS011;32233;49.500;7.764;2023-07-16T03:17:49;11.10;;;4.90;;
7432;SDS011;32233;49.500;7.764;2023-07-16T03:20:16;7.77;;;4.40;;
7432;SDS011;32233;49.500;7.764;2023-07-16T03:22:42;6.90;;;4.23;;
7432;SDS011;32233;49.500;7.764;2023-07-16T03:25:09;4.53;;;3.83;;
7432;SDS011;32233;49.500;7.764;2023-07-16T03:27:36;7.47;;;4.00;;
7432;SDS011;32233;49.500;7.764;2023-07-16T03:30:03;9.47;;;4.60;;
7432;SDS011;32233;49.500;7.764;2023-07-16T03:32:30;8.10;;;3.83;;
7432;SDS011;32233;49.500;7.764;2023-07-16T03:35:17;7.83;;;3.90;;
7432;SDS011;32233;49.500;7.764;2023-07-16T03:37:43;9.87;;;4.30;;
7432;SDS011;32233;49.500;7.764;2023-07-16T03:40:14;8.17;;;3.97;;
7432;SDS011;32233;49.500;7.764;2023-07-16T03:42:44;6.00;;;3.70;;
7432;SDS011;32233;49.500;7.764;2023-07-16T03:45:10;8.03;;;4.00;;
7432;SDS011;32233;49.500;7.764;2023-07-16T03:47:37;6.10;;;3.80;;
7432;SDS011;32233;49.500;7.764;2023-07-16T03:50:04;8.37;;;4.00;;
7432;SDS011;32233;49.500;7.764;2023-07-16T03:52:31;11.50;;;4.23;;
7432;SDS011;32233;49.500;7.764;2023-07-16T03:54:58;12.00;;;4.70;;
7432;SDS011;32233;49.500;7.764;2023-07-16T03:57:27;7.27;;;4.57;;
7432;SDS011;32233;49.500;7.764;2023-07-16T03:59:54;5.80;;;4.07;;
7432;SDS011;32233;49.500;7.764;2023-07-16T04:02:21;7.70;;;4.00;;
7432;SDS011;32233;49.500;7.764;2023-07-16T04:04:48;8.93;;;4.00;;
7432;SDS011;32233;49.500;7.764;2023-07-16T04:07:14;7.70;;;3.87;;
7432;SDS011;32233;49.500;7.764;2023-07-16T04:09:41;6.43;;;3.63;;
7432;SDS011;32233;49.500;7.764;2023-07-16T04:12:07;6.53;;;3.80;;
7432;SDS011;32233;49.500;7.764;2023-07-16T04:14:34;8.10;;;3.70;;
7432;SDS011;32233;49.500;7.764;2023-07-16T04:17:00;12.63;;;4.60;;
7432;SDS011;32233;49.500;7.764;2023-07-16T04:19:27;6.30;;;3.60;;
7432;SDS011;32233;49.500;7.764;2023-07-16T04:21:54;7.13;;;3.43;;
7432;SDS011;32233;49.500;7.764;2023-07-16T04:24:21;6.33;;;3.47;;
7432;SDS011;32233;49.500;7.764;2023-07-16T04:26:47;7.33;;;3.70;;
7432;SDS011;32233;49.500;7.764;2023-07-16T04:29:14;8.77;;;3.13;;
7432;SDS011;32233;49.500;7.764;2023-07-16T04:31:40;7.17;;;3.47;;
7432;SDS011;32233;49.500;7.764;2023-07-16T04:34:07;7.90;;;3.03;;
7432;SDS011;32233;49.500;7.764;2023-07-16T04:36:34;7.90;;;3.50;;
7432;SDS011;32233;49.500;7.764;2023-07-16T04:39:00;8.63;;;3.40;;
7432;SDS011;32233;49.500;7.764;2023-07-16T04:41:27;6.33;;;2.97;;
7432;SDS011;32233;49.500;7.764;2023-07-16T04:43:54;5.37;;;3.47;;
7432;SDS011;32233;49.500;7.764;2023-07-16T04:46:20;5.60;;;3.03;;
7432;SDS011;32233;49.500;7.764;2023-07-16T04:48:47;8.47;;;3.53;;
7432;SDS011;32233;49.500;7.764;2023-07-16T04:51:13;6.37;;;3.50;;
7432;SDS011;32233;49.500;7.764;2023-07-16T04:53:40;8.27;;;3.03;;
7432;SDS011;32233;49.500;7.764;2023-07-16T04:56:13;7.60;;;3.10;;
7432;SDS011;32233;49.500;7.764;2023-07-16T04:58:41;6.03;;;2.90;;
7432;SDS011;32233;49.500;7.764;2023-07-16T05:01:08;8.87;;;3.20;;
7432;SDS011;32233;49.500;7.764;2023-07-16T05:03:35;8.10;;;3.23;;
7432;SDS011;32233;49.500;7.764;2023-07-16T05:06:02;7.53;;;3.00;;
7432;SDS011;32233;49.500;7.764;2023-07-16T05:08:29;7.47;;;3.63;;
7432;SDS011;32233;49.500;7.764;2023-07-16T05:10:56;6.73;;;3.10;;
7432;SDS011;32233;49.500;7.764;2023-07-16T05:13:22;8.27;;;3.50;;
7432;SDS011;32233;49.500;7.764;2023-07-16T05:15:49;6.60;;;3.20;;
7432;SDS011;32233;49.500;7.764;2023-07-16T05:18:16;5.50;;;3.00;;
7432;SDS011;32233;49.500;7.764;2023-07-16T05:20:42;7.13;;;3.43;;
7432;SDS011;32233;49.500;7.764;2023-07-16T05:23:09;6.97;;;3.33;;
7432;SDS011;32233;49.500;7.764;2023-07-16T05:25:36;6.83;;;3.03;;
7432;SDS011;32233;49.500;7.764;2023-07-16T05:28:03;4.40;;;2.90;;
7432;SDS011;32233;49.500;7.764;2023-07-16T05:30:30;5.70;;;3.07;;
7432;SDS011;32233;49.500;7.764;2023-07-16T05:32:56;9.77;;;3.70;;
7432;SDS011;32233;49.500;7.764;2023-07-16T05:35:23;4.70;;;2.60;;
7432;SDS011;32233;49.500;7.764;2023-07-16T05:37:49;6.27;;;3.20;;
7432;SDS011;32233;49.500;7.764;2023-07-16T05:40:16;4.77;;;2.80;;
7432;SDS011;32233;49.500;7.764;2023-07-16T05:42:42;7.17;;;3.00;;
7432;SDS011;32233;49.500;7.764;2023-07-16T05:45:09;7.63;;;3.70;;
7432;SDS011;32233;49.500;7.764;2023-07-16T05:47:36;8.37;;;3.40;;
7432;SDS011;32233;49.500;7.764;2023-07-16T05:50:02;9.57;;;3.60;;
7432;SDS011;32233;49.500;7.764;2023-07-16T05:52:29;6.63;;;3.30;;
7432;SDS011;32233;49.500;7.764;2023-07-16T05:54:56;10.93;;;3.43;;
7432;SDS011;32233;49.500;7.764;2023-07-16T05:57:22;8.83;;;3.47;;
7432;SDS011;32233;49.500;7.764;2023-07-16T05:59:49;4.27;;;2.70;;
7432;SDS011;32233;49.500;7.764;2023-07-16T06:02:15;8.63;;;2.70;;
7432;SDS011;32233;49.500;7.764;2023-07-16T06:04:42;6.60;;;2.83;;
7432;SDS011;32233;49.500;7.764;2023-07-16T06:07:08;6.60;;;3.07;;
7432;SDS011;32233;49.500;7.764;2023-07-16T06:09:34;6.43;;;3.10;;
7432;SDS011;32233;49.500;7.764;2023-07-16T06:12:01;5.80;;;2.80;;
7432;SDS011;32233;49.500;7.764;2023-07-16T06:14:28;7.73;;;2.90;;
7432;SDS011;32233;49.500;7.764;2023-07-16T06:16:54;9.00;;;3.30;;
7432;SDS011;32233;49.500;7.764;2023-07-16T06:19:21;5.83;;;3.00;;
7432;SDS011;32233;49.500;7.764;2023-07-16T06:21:48;7.03;;;2.90;;
7432;SDS011;32233;49.500;7.764;2023-07-16T06:24:14;7.70;;;2.90;;
7432;SDS011;32233;49.500;7.764;2023-07-16T06:26:42;6.47;;;3.27;;
7432;SDS011;32233;49.500;7.764;2023-07-16T06:29:09;8.07;;;2.90;;
7432;SDS011;32233;49.500;7.764;2023-07-16T06:31:36;6.67;;;3.00;;
7432;SDS011;32233;49.500;7.764;2023-07-16T06:34:02;7.47;;;2.90;;
7432;SDS011;32233;49.500;7.764;2023-07-16T06:36:29;5.13;;;2.30;;
7432;SDS011;32233;49.500;7.764;2023-07-16T06:38:55;6.60;;;2.77;;
7432;SDS011;32233;49.500;7.764;2023-07-16T06:41:22;6.27;;;3.17;;
7432;SDS011;32233;49.500;7.764;2023-07-16T06:43:48;7.47;;;2.83;;
7432;SDS011;32233;49.500;7.764;2023-07-16T06:46:15;5.40;;;2.50;;
7432;SDS011;32233;49.500;7.764;2023-07-16T06:48:42;4.17;;;2.80;;
7432;SDS011;32233;49.500;7.764;2023-07-16T06:51:08;7.63;;;3.10;;
7432;SDS011;32233;49.500;7.764;2023-07-16T06:53:35;7.20;;;2.80;;
7432;SDS011;32233;49.500;7.764;2023-07-16T06:56:02;7.23;;;3.20;;
7432;SDS011;32233;49.500;7.764;2023-07-16T06:58:32;8.50;;;3.10;;
7432;SDS011;32233;49.500;7.764;2023-07-16T07:01:02;2.67;;;2.33;;
7432;SDS011;32233;49.500;7.764;2023-07-16T07:03:28;7.63;;;2.50;;
7432;SDS011;32233;49.500;7.764;2023-07-16T07:05:55;9.33;;;2.80;;
7432;SDS011;32233;49.500;7.764;2023-07-16T07:08:22;6.37;;;3.07;;
7432;SDS011;32233;49.500;7.764;2023-07-16T07:10:49;7.57;;;2.90;;
7432;SDS011;32233;49.500;7.764;2023-07-16T07:13:16;6.77;;;2.50;;
7432;SDS011;32233;49.500;7.764;2023-07-16T07:15:42;8.33;;;2.80;;
7432;SDS011;32233;49.500;7.764;2023-07-16T07:18:09;7.23;;;2.60;;
7432;SDS011;32233;49.500;7.764;2023-07-16T07:20:36;6.80;;;2.67;;
7432;SDS011;32233;49.500;7.764;2023-07-16T07:23:02;6.87;;;2.87;;
7432;SDS011;32233;49.500;7.764;2023-07-16T07:25:31;5.67;;;3.03;;
7432;SDS011;32233;49.500;7.764;2023-07-16T07:27:58;5.87;;;2.60;;
7432;SDS011;32233;49.500;7.764;2023-07-16T07:30:24;6.70;;;3.00;;
7432;SDS011;32233;49.500;7.764;2023-07-16T07:32:51;6.53;;;3.10;;
7432;SDS011;32233;49.500;7.764;2023-07-16T07:35:18;6.10;;;2.70;;
7432;SDS011;32233;49.500;7.764;2023-07-16T07:37:44;8.23;;;2.90;;
7432;SDS011;32233;49.500;7.764;2023-07-16T07:40:11;6.43;;;2.80;;
7432;SDS011;32233;49.500;7.764;2023-07-16T07:42:38;7.53;;;2.90;;
7432;SDS011;32233;49.500;7.764;2023-07-16T07:45:04;7.37;;;2.90;;
7432;SDS011;32233;49.500;7.764;2023-07-16T07:47:31;6.07;;;2.50;;
7432;SDS011;32233;49.500;7.764;2023-07-16T07:49:58;6.80;;;2.60;;
7432;SDS011;32233;49.500;7.764;2023-07-16T07:52:26;8.70;;;2.27;;
7432;SDS011;32233;49.500;7.764;2023-07-16T07:54:53;6.63;;;2.87;;
7432;SDS011;32233;49.500;7.764;2023-07-16T07:57:20;7.83;;;3.03;;
7432;SDS011;32233;49.500;7.764;2023-07-16T07:59:46;4.43;;;2.73;;
7432;SDS011;32233;49.500;7.764;2023-07-16T08:02:13;10.57;;;3.07;;
7432;SDS011;32233;49.500;7.764;2023-07-16T08:04:40;7.27;;;2.80;;
7432;SDS011;32233;49.500;7.764;2023-07-16T08:07:06;5.47;;;2.63;;
7432;SDS011;32233;49.500;7.764;2023-07-16T08:09:33;10.10;;;3.33;;
7432;SDS011;32233;49.500;7.764;2023-07-16T08:12:00;6.03;;;2.97;;
7432;SDS011;32233;49.500;7.764;2023-07-16T08:14:26;3.67;;;2.57;;
7432;SDS011;32233;49.500;7.764;2023-07-16T08:16:53;5.10;;;3.00;;
7432;SDS011;32233;49.500;7.764;2023-07-16T08:19:19;6.07;;;2.87;;
7432;SDS011;32233;49.500;7.764;2023-07-16T08:21:46;4.87;;;2.20;;
7432;SDS011;32233;49.500;7.764;2023-07-16T08:24:12;6.33;;;3.10;;
7432;SDS011;32233;49.500;7.764;2023-07-16T08:26:39;6.90;;;2.50;;
7432;SDS011;32233;49.500;7.764;2023-07-16T08:29:05;6.00;;;2.53;;
7432;SDS011;32233;49.500;7.764;2023-07-16T08:31:32;8.37;;;3.00;;
7432;SDS011;32233;49.500;7.764;2023-07-16T08:33:58;6.33;;;2.53;;
7432;SDS011;32233;49.500;7.764;2023-07-16T08:36:29;6.50;;;2.80;;
7432;SDS011;32233;49.500;7.764;2023-07-16T08:38:56;3.53;;;2.27;;
7432;SDS011;32233;49.500;7.764;2023-07-16T08:41:22;8.37;;;2.47;;
7432;SDS011;32233;49.500;7.764;2023-07-16T08:43:49;5.10;;;2.70;;
7432;SDS011;32233;49.500;7.764;2023-07-16T08:46:16;5.33;;;2.63;;
7432;SDS011;32233;49.500;7.764;2023-07-16T08:48:44;4.97;;;2.20;;
7432;SDS011;32233;49.500;7.764;2023-07-16T08:51:13;7.30;;;3.07;;
7432;SDS011;32233;49.500;7.764;2023-07-16T08:53:42;5.27;;;2.60;;
7432;SDS011;32233;49.500;7.764;2023-07-16T08:56:08;5.47;;;2.53;;
7432;SDS011;32233;49.500;7.764;2023-07-16T08:58:35;6.40;;;2.50;;
7432;SDS011;32233;49.500;7.764;2023-07-16T09:01:03;10.23;;;2.73;;
7432;SDS011;32233;49.500;7.764;2023-07-16T09:03:31;6.07;;;2.53;;
7432;SDS011;32233;49.500;7.764;2023-07-16T09:05:58;3.90;;;2.20;;
7432;SDS011;32233;49.500;7.764;2023-07-16T09:08:24;5.90;;;2.27;;
7432;SDS011;32233;49.500;7.764;2023-07-16T09:10:55;5.97;;;2.37;;
7432;SDS011;32233;49.500;7.764;2023-07-16T09:13:22;8.47;;;2.97;;
7432;SDS011;32233;49.500;7.764;2023-07-16T09:15:56;4.63;;;2.50;;
7432;SDS011;32233;49.500;7.764;2023-07-16T09:18:24;3.97;;;2.00;;
7432;SDS011;32233;49.500;7.764;2023-07-16T09:20:57;6.03;;;2.23;;
7432;SDS011;32233;49.500;7.764;2023-07-16T09:23:29;5.70;;;2.17;;
7432;SDS011;32233;49.500;7.764;2023-07-16T09:25:57;6.33;;;2.53;;
7432;SDS011;32233;49.500;7.764;2023-07-16T09:28:23;7.50;;;2.20;;
7432;SDS011;32233;49.500;7.764;2023-07-16T09:30:50;6.10;;;2.20;;
7432;SDS011;32233;49.500;7.764;2023-07-16T09:35:48;2.47;;;2.07;;
7432;SDS011;32233;49.500;7.764;2023-07-16T09:38:16;5.60;;;2.50;;
7432;SDS011;32233;49.500;7.764;2023-07-16T09:40:44;3.83;;;2.00;;
7432;SDS011;32233;49.500;7.764;2023-07-16T09:43:12;4.70;;;2.17;;
7432;SDS011;32233;49.500;7.764;2023-07-16T09:45:39;7.40;;;2.20;;
7432;SDS011;32233;49.500;7.764;2023-07-16T09:48:07;7.67;;;2.10;;
7432;SDS011;32233;49.500;7.764;2023-07-16T09:50:35;4.60;;;1.87;;
7432;SDS011;32233;49.500;7.764;2023-07-16T09:53:05;3.23;;;1.90;;
7432;SDS011;32233;49.500;7.764;2023-07-16T09:55:34;6.40;;;2.07;;
7432;SDS011;32233;49.500;7.764;2023-07-16T09:58:02;5.87;;;2.07;;
7432;SDS011;32233;49.500;7.764;2023-07-16T10:00:33;4.27;;;1.83;;
7432;SDS011;32233;49.500;7.764;2023-07-16T10:03:02;7.00;;;2.27;;
7432;SDS011;32233;49.500;7.764;2023-07-16T10:05:29;5.40;;;2.07;;
7432;SDS011;32233;49.500;7.764;2023-07-16T10:07:58;3.83;;;2.20;;
7432;SDS011;32233;49.500;7.764;2023-07-16T10:10:26;4.63;;;2.47;;
7432;SDS011;32233;49.500;7.764;2023-07-16T10:13:11;5.70;;;2.03;;
7432;SDS011;32233;49.500;7.764;2023-07-16T10:15:39;3.53;;;1.80;;
7432;SDS011;32233;49.500;7.764;2023-07-16T10:18:08;5.87;;;2.20;;
7432;SDS011;32233;49.500;7.764;2023-07-16T10:20:36;6.17;;;2.00;;
7432;SDS011;32233;49.500;7.764;2023-07-16T10:23:12;6.20;;;2.57;;
7432;SDS011;32233;49.500;7.764;2023-07-16T10:25:39;5.57;;;2.30;;
7432;SDS011;32233;49.500;7.764;2023-07-16T10:28:07;4.07;;;1.93;;
7432;SDS011;32233;49.500;7.764;2023-07-16T10:30:34;3.63;;;1.87;;
7432;SDS011;32233;49.500;7.764;2023-07-16T10:33:13;3.27;;;2.13;;
7432;SDS011;32233;49.500;7.764;2023-07-16T10:35:44;3.77;;;1.90;;
7432;SDS011;32233;49.500;7.764;2023-07-16T10:38:11;2.63;;;1.87;;
7432;SDS011;32233;49.500;7.764;2023-07-16T10:40:43;4.43;;;2.10;;
7432;SDS011;32233;49.500;7.764;2023-07-16T10:43:11;4.30;;;2.47;;
7432;SDS011;32233;49.500;7.764;2023-07-16T10:45:38;5.03;;;2.70;;
7432;SDS011;32233;49.500;7.764;2023-07-16T10:48:05;3.00;;;2.07;;
7432;SDS011;32233;49.500;7.764;2023-07-16T10:50:32;4.57;;;2.17;;
7432;SDS011;32233;49.500;7.764;2023-07-16T10:53:03;5.20;;;2.20;;
7432;SDS011;32233;49.500;7.764;2023-07-16T10:55:30;4.23;;;1.93;;
7432;SDS011;32233;49.500;7.764;2023-07-16T10:58:03;4.17;;;2.03;;
7432;SDS011;32233;49.500;7.764;2023-07-16T11:00:31;3.40;;;2.10;;
7432;SDS011;32233;49.500;7.764;2023-07-16T11:02:58;6.20;;;2.50;;
7432;SDS011;32233;49.500;7.764;2023-07-16T11:05:25;5.17;;;2.20;;
7432;SDS011;32233;49.500;7.764;2023-07-16T11:07:52;3.37;;;2.13;;
7432;SDS011;32233;49.500;7.764;2023-07-16T11:10:21;4.73;;;2.43;;
7432;SDS011;32233;49.500;7.764;2023-07-16T11:12:52;4.17;;;2.20;;
7432;SDS011;32233;49.500;7.764;2023-07-16T11:15:35;4.67;;;2.47;;
7432;SDS011;32233;49.500;7.764;2023-07-16T11:18:02;4.30;;;2.33;;
7432;SDS011;32233;49.500;7.764;2023-07-16T11:20:29;6.10;;;2.30;;
7432;SDS011;32233;49.500;7.764;2023-07-16T11:23:00;6.23;;;2.37;;
7432;SDS011;32233;49.500;7.764;2023-07-16T11:25:27;3.50;;;2.00;;
7432;SDS011;32233;49.500;7.764;2023-07-16T11:27:54;5.07;;;2.40;;
7432;SDS011;32233;49.500;7.764;2023-07-16T11:30:23;4.33;;;2.33;;
7432;SDS011;32233;49.500;7.764;2023-07-16T11:32:51;4.53;;;2.67;;
7432;SDS011;32233;49.500;7.764;2023-07-16T11:35:18;5.27;;;2.63;;
7432;SDS011;32233;49.500;7.764;2023-07-16T11:37:46;4.13;;;2.63;;
7432;SDS011;32233;49.500;7.764;2023-07-16T11:40:17;3.60;;;2.57;;
7432;SDS011;32233;49.500;7.764;2023-07-16T11:42:45;5.70;;;2.87;;
7432;SDS011;32233;49.500;7.764;2023-07-16T11:45:19;5.10;;;2.37;;
7432;SDS011;32233;49.500;7.764;2023-07-16T11:47:47;3.50;;;2.60;;
7432;SDS011;32233;49.500;7.764;2023-07-16T11:50:13;4.37;;;2.33;;
7432;SDS011;32233;49.500;7.764;2023-07-16T11:52:40;3.00;;;2.10;;
7432;SDS011;32233;49.500;7.764;2023-07-16T11:55:07;6.40;;;2.60;;
7432;SDS011;32233;49.500;7.764;2023-07-16T11:57:34;2.67;;;2.20;;
7432;SDS011;32233;49.500;7.764;2023-07-16T12:00:02;2.67;;;2.47;;
7432;SDS011;32233;49.500;7.764;2023-07-16T12:02:30;5.30;;;2.27;;
7432;SDS011;32233;49.500;7.764;2023-07-16T12:04:56;3.33;;;2.50;;
7432;SDS011;32233;49.500;7.764;2023-07-16T12:10:02;4.87;;;2.87;;
7432;SDS011;32233;49.500;7.764;2023-07-16T12:12:29;2.77;;;2.33;;
7432;SDS011;32233;49.500;7.764;2023-07-16T12:14:56;5.63;;;2.90;;
7432;SDS011;32233;49.500;7.764;2023-07-16T12:17:23;4.33;;;2.47;;
7432;SDS011;32233;49.500;7.764;2023-07-16T12:19:50;3.17;;;2.83;;
7432;SDS011;32233;49.500;7.764;2023-07-16T12:22:17;5.70;;;2.50;;
7432;SDS011;32233;49.500;7.764;2023-07-16T12:24:44;5.80;;;2.70;;
7432;SDS011;32233;49.500;7.764;2023-07-16T12:27:12;5.00;;;2.60;;
7432;SDS011;32233;49.500;7.764;2023-07-16T12:29:39;6.40;;;2.20;;
7432;SDS011;32233;49.500;7.764;2023-07-16T12:32:06;4.37;;;2.50;;
7432;SDS011;32233;49.500;7.764;2023-07-16T12:34:35;4.60;;;2.60;;
7432;SDS011;32233;49.500;7.764;2023-07-16T12:37:03;3.13;;;2.50;;
7432;SDS011;32233;49.500;7.764;2023-07-16T12:39:29;4.10;;;3.03;;
7432;SDS011;32233;49.500;7.764;2023-07-16T12:41:56;4.60;;;2.60;;
7432;SDS011;32233;49.500;7.764;2023-07-16T12:44:22;3.53;;;2.70;;
7432;SDS011;32233;49.500;7.764;2023-07-16T12:46:49;3.60;;;2.43;;
7432;SDS011;32233;49.500;7.764;2023-07-16T12:49:16;4.67;;;2.40;;
7432;SDS011;32233;49.500;7.764;2023-07-16T12:51:43;3.73;;;2.50;;
7432;SDS011;32233;49.500;7.764;2023-07-16T12:54:09;5.10;;;3.00;;
7432;SDS011;32233;49.500;7.764;2023-07-16T12:56:36;4.23;;;2.80;;
7432;SDS011;32233;49.500;7.764;2023-07-16T12:59:02;6.30;;;2.87;;
7432;SDS011;32233;49.500;7.764;2023-07-16T13:01:29;4.87;;;2.87;;
7432;SDS011;32233;49.500;7.764;2023-07-16T13:03:57;3.47;;;2.80;;
7432;SDS011;32233;49.500;7.764;2023-07-16T13:06:24;6.03;;;3.10;;
7432;SDS011;32233;49.500;7.764;2023-07-16T13:08:50;5.20;;;3.67;;
7432;SDS011;32233;49.500;7.764;2023-07-16T13:11:17;6.97;;;2.97;;
7432;SDS011;32233;49.500;7.764;2023-07-16T13:13:44;4.47;;;2.80;;
7432;SDS011;32233;49.500;7.764;2023-07-16T13:16:11;4.53;;;2.73;;
7432;SDS011;32233;49.500;7.764;2023-07-16T13:18:37;4.33;;;2.83;;
7432;SDS011;32233;49.500;7.764;2023-07-16T13:21:04;5.80;;;3.10;;
7432;SDS011;32233;49.500;7.764;2023-07-16T13:23:31;4.60;;;3.10;;
7432;SDS011;32233;49.500;7.764;2023-07-16T13:25:58;4.33;;;3.17;;
7432;SDS011;32233;49.500;7.764;2023-07-16T13:28:24;6.67;;;3.00;;
7432;SDS011;32233;49.500;7.764;2023-07-16T13:30:51;2.80;;;2.60;;
7432;SDS011;32233;49.500;7.764;2023-07-16T13:33:18;6.30;;;3.23;;
7432;SDS011;32233;49.500;7.764;2023-07-16T13:35:45;3.87;;;2.50;;
7432;SDS011;32233;49.500;7.764;2023-07-16T13:38:11;5.43;;;2.83;;
7432;SDS011;32233;49.500;7.764;2023-07-16T13:40:38;6.27;;;4.20;;
7432;SDS011;32233;49.500;7.764;2023-07-16T13:43:04;5.87;;;3.00;;
7432;SDS011;32233;49.500;7.764;2023-07-16T13:45:31;5.47;;;3.40;;
7432;SDS011;32233;49.500;7.764;2023-07-16T13:47:59;65.13;;;34.90;;
7432;SDS011;32233;49.500;7.764;2023-07-16T13:50:26;71.20;;;36.93;;
7432;SDS011;32233;49.500;7.764;2023-07-16T13:52:52;66.07;;;34.13;;
7432;SDS011;32233;49.500;7.764;2023-07-16T13:55:19;71.33;;;38.80;;
7432;SDS011;32233;49.500;7.764;2023-07-16T13:57:45;121.73;;;61.47;;
7432;SDS011;32233;49.500;7.764;2023-07-16T14:00:12;51.67;;;26.73;;
7432;SDS011;32233;49.500;7.764;2023-07-16T14:02:42;19.57;;;10.73;;
7432;SDS011;32233;49.500;7.764;2023-07-16T14:05:10;15.90;;;8.90;;
7432;SDS011;32233;49.500;7.764;2023-07-16T14:07:37;33.97;;;18.50;;
7432;SDS011;32233;49.500;7.764;2023-07-16T14:10:04;24.27;;;12.60;;
7432;SDS011;32233;49.500;7.764;2023-07-16T14:12:31;38.67;;;21.33;;
7432;SDS011;32233;49.500;7.764;2023-07-16T14:14:58;10.50;;;6.20;;
7432;SDS011;32233;49.500;7.764;2023-07-16T14:17:24;17.00;;;7.53;;
7432;SDS011;32233;49.500;7.764;2023-07-16T14:19:51;20.20;;;12.17;;
7432;SDS011;32233;49.500;7.764;2023-07-16T14:22:17;8.20;;;4.60;;
7432;SDS011;32233;49.500;7.764;2023-07-16T14:24:45;5.20;;;3.73;;
7432;SDS011;32233;49.500;7.764;2023-07-16T14:27:16;12.50;;;7.33;;
7432;SDS011;32233;49.500;7.764;2023-07-16T14:29:45;4.43;;;3.30;;
7432;SDS011;32233;49.500;7.764;2023-07-16T14:32:30;6.00;;;4.47;;
7432;SDS011;32233;49.500;7.764;2023-07-16T14:34:58;13.43;;;7.77;;
7432;SDS011;32233;49.500;7.764;2023-07-16T14:37:24;12.53;;;7.87;;
7432;SDS011;32233;49.500;7.764;2023-07-16T14:39:51;13.43;;;8.27;;
7432;SDS011;32233;49.500;7.764;2023-07-16T14:42:18;8.80;;;5.10;;
7432;SDS011;32233;49.500;7.764;2023-07-16T14:44:44;10.17;;;5.80;;
7432;SDS011;32233;49.500;7.764;2023-07-16T14:47:11;8.00;;;4.97;;
7432;SDS011;32233;49.500;7.764;2023-07-16T14:49:37;12.63;;;4.30;;
7432;SDS011;32233;49.500;7.764;2023-07-16T14:52:04;10.07;;;5.83;;
7432;SDS011;32233;49.500;7.764;2023-07-16T14:54:31;4.67;;;3.30;;
7432;SDS011;32233;49.500;7.764;2023-07-16T14:56:59;6.37;;;3.93;;
7432;SDS011;32233;49.500;7.764;2023-07-16T14:59:27;3.73;;;3.33;;
7432;SDS011;32233;49.500;7.764;2023-07-16T15:01:53;4.23;;;3.27;;
7432;SDS011;32233;49.500;7.764;2023-07-16T15:04:20;7.03;;;3.53;;
7432;SDS011;32233;49.500;7.764;2023-07-16T15:06:46;5.70;;;2.90;;
7432;SDS011;32233;49.500;7.764;2023-07-16T15:09:13;4.27;;;3.13;;
7432;SDS011;32233;49.500;7.764;2023-07-16T15:11:40;7.03;;;3.83;;
7432;SDS011;32233;49.500;7.764;2023-07-16T15:14:06;5.00;;;3.20;;